sensor_id;sensor_type;location;lat;lon;timestamp;P1;durP1;ratioP1;P2;durP2;ratioP2
60993;SDS011;47611;54.932;73.338;2022-09-01T00:01:50;48.72;;;18.10;;
60993;SDS011;47611;54.932;73.338;2022-09-01T00:04:25;39.75;;;15.93;;
60993;SDS011;47611;54.932;73.338;2022-09-01T00:06:52;45.42;;;17.40;;
60993;SDS011;47611;54.932;73.338;2022-09-01T00:09:24;46.58;;;18.25;;
60993;SDS011;47611;54.932;73.338;2022-09-01T00:11:51;49.80;;;17.40;;
60993;SDS011;47611;54.932;73.338;2022-09-01T00:14:22;65.25;;;17.58;;
60993;SDS011;47611;54.932;73.338;2022-09-01T00:16:48;50.03;;;15.55;;
60993;SDS011;47611;54.932;73.338;2022-09-01T00:19:25;45.08;;;16.67;;
60993;SDS011;47611;54.932;73.338;2022-09-01T00:21:51;42.78;;;15.77;;
60993;SDS011;47611;54.932;73.338;2022-09-01T00:24:17;40.17;;;15.48;;
60993;SDS011;47611;54.932;73.338;2022-09-01T00:26:48;46.47;;;16.05;;
60993;SDS011;47611;54.932;73.338;2022-09-01T00:29:19;43.25;;;16.80;;
60993;SDS011;47611;54.932;73.338;2022-09-01T00:31:55;37.92;;;15.15;;
60993;SDS011;47611;54.932;73.338;2022-09-01T00:34:21;42.10;;;14.88;;
60993;SDS011;47611;54.932;73.338;2022-09-01T00:36:47;31.20;;;14.85;;
60993;SDS011;47611;54.932;73.338;2022-09-01T00:39:13;45.17;;;16.45;;
60993;SDS011;47611;54.932;73.338;2022-09-01T00:41:41;36.60;;;15.38;;
60993;SDS011;47611;54.932;73.338;2022-09-01T00:44:19;36.08;;;16.40;;
60993;SDS011;47611;54.932;73.338;2022-09-01T00:46:49;40.08;;;16.23;;
60993;SDS011;47611;54.932;73.338;2022-09-01T00:49:36;38.05;;;16.65;;
60993;SDS011;47611;54.932;73.338;2022-09-01T00:52:07;39.55;;;17.52;;
60993;SDS011;47611;54.932;73.338;2022-09-01T00:54:35;31.52;;;15.30;;
60993;SDS011;47611;54.932;73.338;2022-09-01T00:57:02;36.85;;;15.80;;
60993;SDS011;47611;54.932;73.338;2022-09-01T00:59:33;34.78;;;16.77;;
60993;SDS011;47611;54.932;73.338;2022-09-01T01:02:11;40.22;;;17.98;;
60993;SDS011;47611;54.932;73.338;2022-09-01T01:04:42;46.67;;;16.85;;
60993;SDS011;47611;54.932;73.338;2022-09-01T01:07:09;46.53;;;18.30;;
60993;SDS011;47611;54.932;73.338;2022-09-01T01:09:37;36.08;;;15.07;;
60993;SDS011;47611;54.932;73.338;2022-09-01T01:12:04;41.72;;;17.00;;
60993;SDS011;47611;54.932;73.338;2022-09-01T01:14:34;39.38;;;16.35;;
60993;SDS011;47611;54.932;73.338;2022-09-01T01:17:05;37.90;;;16.40;;
60993;SDS011;47611;54.932;73.338;2022-09-01T01:19:52;65.90;;;22.80;;
60993;SDS011;47611;54.932;73.338;2022-09-01T01:25:20;32.78;;;15.23;;
60993;SDS011;47611;54.932;73.338;2022-09-01T01:27:47;42.88;;;17.33;;
60993;SDS011;47611;54.932;73.338;2022-09-01T01:30:23;37.70;;;17.00;;
60993;SDS011;47611;54.932;73.338;2022-09-01T01:32:53;35.58;;;16.10;;
60993;SDS011;47611;54.932;73.338;2022-09-01T01:35:25;57.15;;;21.92;;
60993;SDS011;47611;54.932;73.338;2022-09-01T01:37:51;36.55;;;16.40;;
60993;SDS011;47611;54.932;73.338;2022-09-01T01:40:19;34.17;;;15.65;;
60993;SDS011;47611;54.932;73.338;2022-09-01T01:42:58;40.92;;;15.90;;
60993;SDS011;47611;54.932;73.338;2022-09-01T01:45:28;35.58;;;15.27;;
60993;SDS011;47611;54.932;73.338;2022-09-01T01:47:54;33.22;;;15.50;;
60993;SDS011;47611;54.932;73.338;2022-09-01T01:50:23;44.10;;;15.90;;
60993;SDS011;47611;54.932;73.338;2022-09-01T01:52:50;40.47;;;16.02;;
60993;SDS011;47611;54.932;73.338;2022-09-01T01:55:17;44.10;;;15.90;;
60993;SDS011;47611;54.932;73.338;2022-09-01T01:57:45;36.83;;;15.80;;
60993;SDS011;47611;54.932;73.338;2022-09-01T02:00:17;38.88;;;16.30;;
60993;SDS011;47611;54.932;73.338;2022-09-01T02:02:45;38.40;;;16.63;;
60993;SDS011;47611;54.932;73.338;2022-09-01T02:05:23;39.03;;;15.95;;
60993;SDS011;47611;54.932;73.338;2022-09-01T02:07:56;44.45;;;17.05;;
60993;SDS011;47611;54.932;73.338;2022-09-01T02:10:43;35.72;;;16.98;;
60993;SDS011;47611;54.932;73.338;2022-09-01T02:13:11;40.67;;;18.23;;
60993;SDS011;47611;54.932;73.338;2022-09-01T02:15:43;53.88;;;22.60;;
60993;SDS011;47611;54.932;73.338;2022-09-01T02:18:14;48.60;;;20.13;;
60993;SDS011;47611;54.932;73.338;2022-09-01T02:23:18;45.17;;;19.63;;
60993;SDS011;47611;54.932;73.338;2022-09-01T02:25:58;43.70;;;18.48;;
60993;SDS011;47611;54.932;73.338;2022-09-01T02:28:37;42.05;;;17.38;;
60993;SDS011;47611;54.932;73.338;2022-09-01T02:31:12;61.22;;;17.40;;
60993;SDS011;47611;54.932;73.338;2022-09-01T02:33:38;46.70;;;17.45;;
60993;SDS011;47611;54.932;73.338;2022-09-01T02:36:09;54.42;;;17.55;;
60993;SDS011;47611;54.932;73.338;2022-09-01T02:38:48;48.83;;;17.27;;
60993;SDS011;47611;54.932;73.338;2022-09-01T02:41:16;46.35;;;17.52;;
60993;SDS011;47611;54.932;73.338;2022-09-01T02:43:45;47.78;;;19.20;;
60993;SDS011;47611;54.932;73.338;2022-09-01T02:46:16;43.35;;;17.65;;
60993;SDS011;47611;54.932;73.338;2022-09-01T02:48:45;49.25;;;18.88;;
60993;SDS011;47611;54.932;73.338;2022-09-01T02:51:15;52.97;;;19.30;;
60993;SDS011;47611;54.932;73.338;2022-09-01T02:53:46;50.35;;;18.95;;
60993;SDS011;47611;54.932;73.338;2022-09-01T02:56:26;51.10;;;18.27;;
60993;SDS011;47611;54.932;73.338;2022-09-01T02:58:53;47.75;;;18.23;;
60993;SDS011;47611;54.932;73.338;2022-09-01T03:01:31;53.15;;;17.35;;
60993;SDS011;47611;54.932;73.338;2022-09-01T03:04:00;45.38;;;18.10;;
60993;SDS011;47611;54.932;73.338;2022-09-01T03:06:26;36.60;;;15.75;;
60993;SDS011;47611;54.932;73.338;2022-09-01T03:08:57;49.72;;;15.57;;
60993;SDS011;47611;54.932;73.338;2022-09-01T03:11:24;37.47;;;16.45;;
60993;SDS011;47611;54.932;73.338;2022-09-01T03:13:53;42.85;;;16.73;;
60993;SDS011;47611;54.932;73.338;2022-09-01T03:16:19;33.95;;;14.93;;
60993;SDS011;47611;54.932;73.338;2022-09-01T03:18:52;42.22;;;16.30;;
60993;SDS011;47611;54.932;73.338;2022-09-01T03:21:22;38.70;;;15.20;;
60993;SDS011;47611;54.932;73.338;2022-09-01T03:23:49;30.30;;;14.15;;
60993;SDS011;47611;54.932;73.338;2022-09-01T03:26:25;34.88;;;14.80;;
60993;SDS011;47611;54.932;73.338;2022-09-01T03:28:52;20.90;;;12.27;;
60993;SDS011;47611;54.932;73.338;2022-09-01T03:31:19;24.20;;;12.73;;
60993;SDS011;47611;54.932;73.338;2022-09-01T03:33:56;28.15;;;13.77;;
60993;SDS011;47611;54.932;73.338;2022-09-01T03:36:30;30.95;;;14.88;;
60993;SDS011;47611;54.932;73.338;2022-09-01T03:39:03;31.83;;;14.52;;
60993;SDS011;47611;54.932;73.338;2022-09-01T03:41:40;55.42;;;17.90;;
60993;SDS011;47611;54.932;73.338;2022-09-01T03:44:07;36.33;;;15.73;;
60993;SDS011;47611;54.932;73.338;2022-09-01T03:46:35;31.70;;;16.40;;
60993;SDS011;47611;54.932;73.338;2022-09-01T03:49:03;42.35;;;16.15;;
60993;SDS011;47611;54.932;73.338;2022-09-01T03:51:38;46.17;;;16.08;;
60993;SDS011;47611;54.932;73.338;2022-09-01T03:54:15;49.97;;;16.35;;
60993;SDS011;47611;54.932;73.338;2022-09-01T03:56:42;51.72;;;16.27;;
60993;SDS011;47611;54.932;73.338;2022-09-01T03:59:13;43.47;;;17.27;;
60993;SDS011;47611;54.932;73.338;2022-09-01T04:01:42;36.15;;;15.32;;
60993;SDS011;47611;54.932;73.338;2022-09-01T04:04:12;38.40;;;15.57;;
60993;SDS011;47611;54.932;73.338;2022-09-01T04:06:43;31.95;;;16.15;;
60993;SDS011;47611;54.932;73.338;2022-09-01T04:09:10;31.90;;;15.50;;
60993;SDS011;47611;54.932;73.338;2022-09-01T04:11:37;35.03;;;14.65;;
60993;SDS011;47611;54.932;73.338;2022-09-01T04:14:05;29.85;;;14.13;;
60993;SDS011;47611;54.932;73.338;2022-09-01T04:16:39;83.55;;;51.97;;
60993;SDS011;47611;54.932;73.338;2022-09-01T04:19:32;54.15;;;27.02;;
60993;SDS011;47611;54.932;73.338;2022-09-01T04:22:01;148.20;;;83.43;;
60993;SDS011;47611;54.932;73.338;2022-09-01T04:24:32;235.60;;;114.28;;
60993;SDS011;47611;54.932;73.338;2022-09-01T04:27:04;114.28;;;52.83;;
60993;SDS011;47611;54.932;73.338;2022-09-01T04:29:34;120.00;;;54.33;;
60993;SDS011;47611;54.932;73.338;2022-09-01T04:32:05;115.88;;;50.90;;
60993;SDS011;47611;54.932;73.338;2022-09-01T04:34:44;89.80;;;41.95;;
60993;SDS011;47611;54.932;73.338;2022-09-01T04:37:15;72.20;;;35.05;;
60993;SDS011;47611;54.932;73.338;2022-09-01T04:39:47;64.93;;;32.67;;
60993;SDS011;47611;54.932;73.338;2022-09-01T04:42:14;54.53;;;24.33;;
60993;SDS011;47611;54.932;73.338;2022-09-01T04:44:52;58.95;;;29.88;;
60993;SDS011;47611;54.932;73.338;2022-09-01T04:47:26;54.90;;;26.25;;
60993;SDS011;47611;54.932;73.338;2022-09-01T04:50:05;53.17;;;26.85;;
60993;SDS011;47611;54.932;73.338;2022-09-01T04:52:42;48.50;;;26.17;;
60993;SDS011;47611;54.932;73.338;2022-09-01T04:55:17;46.63;;;20.25;;
60993;SDS011;47611;54.932;73.338;2022-09-01T04:57:48;44.47;;;22.52;;
60993;SDS011;47611;54.932;73.338;2022-09-01T05:00:18;45.88;;;22.25;;
60993;SDS011;47611;54.932;73.338;2022-09-01T05:02:54;43.83;;;21.65;;
60993;SDS011;47611;54.932;73.338;2022-09-01T05:05:39;39.63;;;19.85;;
60993;SDS011;47611;54.932;73.338;2022-09-01T05:08:09;40.53;;;19.50;;
60993;SDS011;47611;54.932;73.338;2022-09-01T05:10:41;38.55;;;18.25;;
60993;SDS011;47611;54.932;73.338;2022-09-01T05:13:27;38.67;;;15.15;;
60993;SDS011;47611;54.932;73.338;2022-09-01T05:16:01;36.55;;;18.83;;
60993;SDS011;47611;54.932;73.338;2022-09-01T05:18:28;30.45;;;15.43;;
60993;SDS011;47611;54.932;73.338;2022-09-01T05:20:54;29.90;;;16.00;;
60993;SDS011;47611;54.932;73.338;2022-09-01T05:23:22;31.02;;;15.68;;
60993;SDS011;47611;54.932;73.338;2022-09-01T05:25:50;28.55;;;15.65;;
60993;SDS011;47611;54.932;73.338;2022-09-01T05:28:28;46.83;;;15.50;;
60993;SDS011;47611;54.932;73.338;2022-09-01T05:30:58;40.38;;;16.17;;
60993;SDS011;47611;54.932;73.338;2022-09-01T05:33:29;32.03;;;14.52;;
60993;SDS011;47611;54.932;73.338;2022-09-01T05:35:56;36.92;;;15.38;;
60993;SDS011;47611;54.932;73.338;2022-09-01T05:38:23;31.17;;;13.93;;
60993;SDS011;47611;54.932;73.338;2022-09-01T05:40:57;35.13;;;14.93;;
60993;SDS011;47611;54.932;73.338;2022-09-01T05:43:27;26.75;;;14.38;;
60993;SDS011;47611;54.932;73.338;2022-09-01T05:46:00;32.63;;;14.57;;
60993;SDS011;47611;54.932;73.338;2022-09-01T05:48:38;36.63;;;14.23;;
60993;SDS011;47611;54.932;73.338;2022-09-01T05:51:10;48.50;;;14.55;;
60993;SDS011;47611;54.932;73.338;2022-09-01T05:53:55;38.35;;;14.98;;
60993;SDS011;47611;54.932;73.338;2022-09-01T05:56:25;37.78;;;14.20;;
60993;SDS011;47611;54.932;73.338;2022-09-01T05:58:51;31.50;;;13.07;;
60993;SDS011;47611;54.932;73.338;2022-09-01T06:01:19;35.72;;;14.80;;
60993;SDS011;47611;54.932;73.338;2022-09-01T06:03:49;33.60;;;14.00;;
60993;SDS011;47611;54.932;73.338;2022-09-01T06:06:37;45.08;;;19.67;;
60993;SDS011;47611;54.932;73.338;2022-09-01T06:09:06;71.13;;;30.80;;
60993;SDS011;47611;54.932;73.338;2022-09-01T06:11:32;89.28;;;39.15;;
60993;SDS011;47611;54.932;73.338;2022-09-01T06:13:59;81.85;;;38.40;;
60993;SDS011;47611;54.932;73.338;2022-09-01T06:16:26;87.68;;;39.53;;
60993;SDS011;47611;54.932;73.338;2022-09-01T06:19:04;82.70;;;38.92;;
60993;SDS011;47611;54.932;73.338;2022-09-01T06:21:32;80.63;;;35.38;;
60993;SDS011;47611;54.932;73.338;2022-09-01T06:23:58;73.00;;;33.28;;
60993;SDS011;47611;54.932;73.338;2022-09-01T06:26:35;46.00;;;22.00;;
60993;SDS011;47611;54.932;73.338;2022-09-01T06:29:08;63.03;;;29.67;;
60993;SDS011;47611;54.932;73.338;2022-09-01T06:31:42;40.05;;;20.60;;
60993;SDS011;47611;54.932;73.338;2022-09-01T06:34:17;64.70;;;30.30;;
60993;SDS011;47611;54.932;73.338;2022-09-01T06:36:45;66.72;;;25.85;;
60993;SDS011;47611;54.932;73.338;2022-09-01T06:39:18;69.53;;;26.55;;
60993;SDS011;47611;54.932;73.338;2022-09-01T06:41:52;48.20;;;21.27;;
60993;SDS011;47611;54.932;73.338;2022-09-01T06:44:29;46.15;;;21.60;;
60993;SDS011;47611;54.932;73.338;2022-09-01T06:47:04;49.67;;;24.23;;
60993;SDS011;47611;54.932;73.338;2022-09-01T06:49:30;44.25;;;22.40;;
60993;SDS011;47611;54.932;73.338;2022-09-01T06:52:02;54.15;;;25.05;;
60993;SDS011;47611;54.932;73.338;2022-09-01T06:54:39;50.25;;;18.00;;
60993;SDS011;47611;54.932;73.338;2022-09-01T06:57:19;53.75;;;21.30;;
60993;SDS011;47611;54.932;73.338;2022-09-01T06:59:48;48.80;;;21.05;;
60993;SDS011;47611;54.932;73.338;2022-09-01T07:02:15;41.78;;;19.60;;
60993;SDS011;47611;54.932;73.338;2022-09-01T07:05:11;45.55;;;19.50;;
60993;SDS011;47611;54.932;73.338;2022-09-01T07:07:45;45.10;;;19.05;;
60993;SDS011;47611;54.932;73.338;2022-09-01T07:10:39;44.30;;;18.60;;
60993;SDS011;47611;54.932;73.338;2022-09-01T07:13:19;47.85;;;17.35;;
60993;SDS011;47611;54.932;73.338;2022-09-01T07:15:50;51.30;;;17.42;;
60993;SDS011;47611;54.932;73.338;2022-09-01T07:18:18;42.50;;;16.10;;
60993;SDS011;47611;54.932;73.338;2022-09-01T07:20:55;48.72;;;16.05;;
60993;SDS011;47611;54.932;73.338;2022-09-01T07:23:21;53.38;;;15.63;;
60993;SDS011;47611;54.932;73.338;2022-09-01T07:25:52;40.83;;;14.27;;
60993;SDS011;47611;54.932;73.338;2022-09-01T07:28:30;40.88;;;14.75;;
60993;SDS011;47611;54.932;73.338;2022-09-01T07:30:58;46.30;;;14.85;;
60993;SDS011;47611;54.932;73.338;2022-09-01T07:33:26;46.15;;;14.98;;
60993;SDS011;47611;54.932;73.338;2022-09-01T07:36:02;36.55;;;14.95;;
60993;SDS011;47611;54.932;73.338;2022-09-01T07:38:31;42.08;;;14.95;;
60993;SDS011;47611;54.932;73.338;2022-09-01T07:40:57;35.70;;;14.98;;
60993;SDS011;47611;54.932;73.338;2022-09-01T07:43:53;38.90;;;14.90;;
60993;SDS011;47611;54.932;73.338;2022-09-01T07:46:26;38.88;;;14.98;;
60993;SDS011;47611;54.932;73.338;2022-09-01T07:48:54;37.53;;;14.45;;
60993;SDS011;47611;54.932;73.338;2022-09-01T07:51:21;35.53;;;14.85;;
60993;SDS011;47611;54.932;73.338;2022-09-01T07:53:48;30.50;;;14.75;;
60993;SDS011;47611;54.932;73.338;2022-09-01T07:56:25;34.83;;;15.23;;
60993;SDS011;47611;54.932;73.338;2022-09-01T07:58:52;43.60;;;14.55;;
60993;SDS011;47611;54.932;73.338;2022-09-01T08:01:21;37.60;;;13.88;;
60993;SDS011;47611;54.932;73.338;2022-09-01T08:03:50;28.35;;;13.15;;
60993;SDS011;47611;54.932;73.338;2022-09-01T08:06:17;34.63;;;14.05;;
60993;SDS011;47611;54.932;73.338;2022-09-01T08:08:55;22.70;;;12.65;;
60993;SDS011;47611;54.932;73.338;2022-09-01T08:11:25;41.55;;;13.55;;
60993;SDS011;47611;54.932;73.338;2022-09-01T08:13:54;53.47;;;13.35;;
60993;SDS011;47611;54.932;73.338;2022-09-01T08:16:20;26.20;;;13.50;;
60993;SDS011;47611;54.932;73.338;2022-09-01T08:18:48;24.88;;;12.50;;
60993;SDS011;47611;54.932;73.338;2022-09-01T08:21:27;27.80;;;12.50;;
60993;SDS011;47611;54.932;73.338;2022-09-01T08:24:05;31.20;;;12.70;;
60993;SDS011;47611;54.932;73.338;2022-09-01T08:26:41;38.55;;;13.93;;
60993;SDS011;47611;54.932;73.338;2022-09-01T08:29:07;36.47;;;12.80;;
60993;SDS011;47611;54.932;73.338;2022-09-01T08:31:39;30.98;;;12.63;;
60993;SDS011;47611;54.932;73.338;2022-09-01T08:34:05;37.40;;;12.63;;
60993;SDS011;47611;54.932;73.338;2022-09-01T08:36:32;32.08;;;11.63;;
60993;SDS011;47611;54.932;73.338;2022-09-01T08:39:08;24.55;;;12.05;;
60993;SDS011;47611;54.932;73.338;2022-09-01T08:41:42;28.02;;;11.93;;
60993;SDS011;47611;54.932;73.338;2022-09-01T08:44:18;26.48;;;12.02;;
60993;SDS011;47611;54.932;73.338;2022-09-01T08:47:05;27.65;;;12.20;;
60993;SDS011;47611;54.932;73.338;2022-09-01T08:49:35;38.20;;;12.35;;
60993;SDS011;47611;54.932;73.338;2022-09-01T08:52:26;26.83;;;11.70;;
60993;SDS011;47611;54.932;73.338;2022-09-01T08:57:35;25.13;;;11.02;;
60993;SDS011;47611;54.932;73.338;2022-09-01T09:00:20;28.98;;;10.75;;
60993;SDS011;47611;54.932;73.338;2022-09-01T09:03:03;31.08;;;10.63;;
60993;SDS011;47611;54.932;73.338;2022-09-01T09:08:25;24.90;;;9.68;;
60993;SDS011;47611;54.932;73.338;2022-09-01T09:11:01;19.80;;;10.50;;
60993;SDS011;47611;54.932;73.338;2022-09-01T09:14:16;32.35;;;10.45;;
60993;SDS011;47611;54.932;73.338;2022-09-01T09:16:24;34.10;;;9.93;;
60993;SDS011;47611;54.932;73.338;2022-09-01T09:19:02;34.85;;;12.00;;
60993;SDS011;47611;54.932;73.338;2022-09-01T09:21:32;29.38;;;10.93;;
60993;SDS011;47611;54.932;73.338;2022-09-01T09:26:52;19.95;;;10.52;;
60993;SDS011;47611;54.932;73.338;2022-09-01T09:29:18;28.92;;;10.98;;
60993;SDS011;47611;54.932;73.338;2022-09-01T09:31:47;22.73;;;10.38;;
60993;SDS011;47611;54.932;73.338;2022-09-01T09:34:32;33.08;;;11.02;;
60993;SDS011;47611;54.932;73.338;2022-09-01T09:42:59;23.05;;;11.93;;
60993;SDS011;47611;54.932;73.338;2022-09-01T09:45:37;28.52;;;13.20;;
60993;SDS011;47611;54.932;73.338;2022-09-01T09:48:29;18.63;;;11.30;;
60993;SDS011;47611;54.932;73.338;2022-09-01T09:54:12;27.02;;;11.25;;
60993;SDS011;47611;54.932;73.338;2022-09-01T09:56:48;22.48;;;10.77;;
60993;SDS011;47611;54.932;73.338;2022-09-01T09:59:27;23.42;;;12.00;;
60993;SDS011;47611;54.932;73.338;2022-09-01T10:02:13;21.27;;;11.15;;
60993;SDS011;47611;54.932;73.338;2022-09-01T10:04:41;19.50;;;11.25;;
60993;SDS011;47611;54.932;73.338;2022-09-01T10:12:58;22.98;;;11.32;;
60993;SDS011;47611;54.932;73.338;2022-09-01T10:15:27;37.65;;;12.48;;
60993;SDS011;47611;54.932;73.338;2022-09-01T10:17:53;24.70;;;11.48;;
60993;SDS011;47611;54.932;73.338;2022-09-01T10:20:22;20.02;;;11.70;;
60993;SDS011;47611;54.932;73.338;2022-09-01T10:22:48;23.58;;;11.10;;
60993;SDS011;47611;54.932;73.338;2022-09-01T10:25:25;27.77;;;12.48;;
60993;SDS011;47611;54.932;73.338;2022-09-01T10:30:56;25.13;;;12.27;;
60993;SDS011;47611;54.932;73.338;2022-09-01T10:33:23;29.77;;;12.63;;
60993;SDS011;47611;54.932;73.338;2022-09-01T10:35:50;28.98;;;11.60;;
60993;SDS011;47611;54.932;73.338;2022-09-01T10:38:21;30.00;;;12.07;;
60993;SDS011;47611;54.932;73.338;2022-09-01T10:40:49;32.28;;;12.13;;
60993;SDS011;47611;54.932;73.338;2022-09-01T10:43:38;28.08;;;11.55;;
60993;SDS011;47611;54.932;73.338;2022-09-01T10:48:45;28.65;;;12.55;;
60993;SDS011;47611;54.932;73.338;2022-09-01T10:56:23;30.75;;;12.38;;
60993;SDS011;47611;54.932;73.338;2022-09-01T11:04:11;29.23;;;13.82;;
60993;SDS011;47611;54.932;73.338;2022-09-01T11:14:25;29.15;;;13.77;;
60993;SDS011;47611;54.932;73.338;2022-09-01T11:22:04;22.23;;;13.02;;
60993;SDS011;47611;54.932;73.338;2022-09-01T11:27:04;28.27;;;13.23;;
60993;SDS011;47611;54.932;73.338;2022-09-01T11:32:21;21.77;;;13.90;;
60993;SDS011;47611;54.932;73.338;2022-09-01T11:34:54;27.10;;;13.73;;
60993;SDS011;47611;54.932;73.338;2022-09-01T11:37:22;28.73;;;13.18;;
60993;SDS011;47611;54.932;73.338;2022-09-01T11:39:52;24.33;;;12.10;;
60993;SDS011;47611;54.932;73.338;2022-09-01T11:42:24;28.35;;;15.35;;
60993;SDS011;47611;54.932;73.338;2022-09-01T11:47:32;27.13;;;15.00;;
60993;SDS011;47611;54.932;73.338;2022-09-01T11:50:07;28.58;;;14.75;;
60993;SDS011;47611;54.932;73.338;2022-09-01T11:52:35;28.58;;;15.90;;
60993;SDS011;47611;54.932;73.338;2022-09-01T11:55:02;29.80;;;16.85;;
60993;SDS011;47611;54.932;73.338;2022-09-01T12:00:06;32.03;;;17.10;;
60993;SDS011;47611;54.932;73.338;2022-09-01T12:02:43;30.17;;;17.13;;
60993;SDS011;47611;54.932;73.338;2022-09-01T12:05:29;28.70;;;17.50;;
60993;SDS011;47611;54.932;73.338;2022-09-01T12:07:56;30.83;;;18.35;;
60993;SDS011;47611;54.932;73.338;2022-09-01T12:13:09;35.65;;;18.23;;
60993;SDS011;47611;54.932;73.338;2022-09-01T12:15:51;33.55;;;18.40;;
60993;SDS011;47611;54.932;73.338;2022-09-01T12:18:19;33.30;;;19.58;;
60993;SDS011;47611;54.932;73.338;2022-09-01T12:20:50;29.67;;;18.20;;
60993;SDS011;47611;54.932;73.338;2022-09-01T12:23:26;29.25;;;19.38;;
60993;SDS011;47611;54.932;73.338;2022-09-01T12:25:53;35.65;;;19.88;;
60993;SDS011;47611;54.932;73.338;2022-09-01T12:28:30;40.45;;;23.00;;
60993;SDS011;47611;54.932;73.338;2022-09-01T12:31:04;31.15;;;19.42;;
60993;SDS011;47611;54.932;73.338;2022-09-01T12:33:31;36.88;;;20.38;;
60993;SDS011;47611;54.932;73.338;2022-09-01T12:38:47;29.65;;;18.65;;
60993;SDS011;47611;54.932;73.338;2022-09-01T12:41:30;32.03;;;20.17;;
60993;SDS011;47611;54.932;73.338;2022-09-01T12:44:24;28.75;;;18.52;;
60993;SDS011;47611;54.932;73.338;2022-09-01T12:46:44;37.08;;;20.33;;
60993;SDS011;47611;54.932;73.338;2022-09-01T12:49:55;36.40;;;19.95;;
60993;SDS011;47611;54.932;73.338;2022-09-01T12:54:32;32.28;;;19.00;;
60993;SDS011;47611;54.932;73.338;2022-09-01T12:56:58;33.65;;;19.42;;
60993;SDS011;47611;54.932;73.338;2022-09-01T12:59:28;32.55;;;19.92;;
60993;SDS011;47611;54.932;73.338;2022-09-01T13:01:54;29.50;;;18.60;;
60993;SDS011;47611;54.932;73.338;2022-09-01T13:07:01;32.58;;;18.23;;
60993;SDS011;47611;54.932;73.338;2022-09-01T13:09:27;33.53;;;18.50;;
60993;SDS011;47611;54.932;73.338;2022-09-01T13:12:16;29.98;;;17.65;;
60993;SDS011;47611;54.932;73.338;2022-09-01T13:14:43;32.80;;;17.85;;
60993;SDS011;47611;54.932;73.338;2022-09-01T13:17:14;30.08;;;17.85;;
60993;SDS011;47611;54.932;73.338;2022-09-01T13:19:40;32.47;;;17.70;;
60993;SDS011;47611;54.932;73.338;2022-09-01T13:22:07;32.72;;;16.85;;
60993;SDS011;47611;54.932;73.338;2022-09-01T13:24:33;28.58;;;17.33;;
60993;SDS011;47611;54.932;73.338;2022-09-01T13:26:59;30.40;;;16.70;;
60993;SDS011;47611;54.932;73.338;2022-09-01T13:29:25;30.15;;;17.15;;
60993;SDS011;47611;54.932;73.338;2022-09-01T13:31:51;32.53;;;16.73;;
60993;SDS011;47611;54.932;73.338;2022-09-01T13:34:27;29.70;;;17.42;;
60993;SDS011;47611;54.932;73.338;2022-09-01T13:36:53;34.65;;;18.65;;
60993;SDS011;47611;54.932;73.338;2022-09-01T13:39:19;34.60;;;20.60;;
60993;SDS011;47611;54.932;73.338;2022-09-01T13:41:54;33.17;;;18.10;;
60993;SDS011;47611;54.932;73.338;2022-09-01T13:44:21;31.55;;;17.17;;
60993;SDS011;47611;54.932;73.338;2022-09-01T13:46:47;32.88;;;18.70;;
60993;SDS011;47611;54.932;73.338;2022-09-01T13:49:13;33.20;;;18.10;;
60993;SDS011;47611;54.932;73.338;2022-09-01T13:51:39;35.92;;;19.58;;
60993;SDS011;47611;54.932;73.338;2022-09-01T13:54:10;37.03;;;17.63;;
60993;SDS011;47611;54.932;73.338;2022-09-01T13:56:47;28.45;;;16.75;;
60993;SDS011;47611;54.932;73.338;2022-09-01T13:59:18;34.05;;;18.90;;
60993;SDS011;47611;54.932;73.338;2022-09-01T14:01:55;31.42;;;16.80;;
60993;SDS011;47611;54.932;73.338;2022-09-01T14:04:21;31.60;;;16.73;;
60993;SDS011;47611;54.932;73.338;2022-09-01T14:06:53;31.15;;;17.55;;
60993;SDS011;47611;54.932;73.338;2022-09-01T14:09:30;35.10;;;16.77;;
60993;SDS011;47611;54.932;73.338;2022-09-01T14:12:00;32.97;;;16.20;;
60993;SDS011;47611;54.932;73.338;2022-09-01T14:14:27;30.75;;;15.57;;
60993;SDS011;47611;54.932;73.338;2022-09-01T14:16:57;32.67;;;16.58;;
60993;SDS011;47611;54.932;73.338;2022-09-01T14:19:34;29.45;;;15.73;;
60993;SDS011;47611;54.932;73.338;2022-09-01T14:22:11;28.67;;;14.68;;
60993;SDS011;47611;54.932;73.338;2022-09-01T14:24:47;26.00;;;14.68;;
60993;SDS011;47611;54.932;73.338;2022-09-01T14:27:13;30.42;;;13.80;;
60993;SDS011;47611;54.932;73.338;2022-09-01T14:29:41;27.25;;;14.52;;
60993;SDS011;47611;54.932;73.338;2022-09-01T14:32:07;25.33;;;14.77;;
60993;SDS011;47611;54.932;73.338;2022-09-01T14:34:34;29.27;;;15.20;;
60993;SDS011;47611;54.932;73.338;2022-09-01T14:36:59;35.70;;;16.35;;
60993;SDS011;47611;54.932;73.338;2022-09-01T14:39:26;30.80;;;15.98;;
60993;SDS011;47611;54.932;73.338;2022-09-01T14:42:01;38.60;;;18.90;;
60993;SDS011;47611;54.932;73.338;2022-09-01T14:44:38;33.60;;;16.40;;
60993;SDS011;47611;54.932;73.338;2022-09-01T14:47:09;31.10;;;14.68;;
60993;SDS011;47611;54.932;73.338;2022-09-01T14:49:36;27.27;;;14.60;;
60993;SDS011;47611;54.932;73.338;2022-09-01T14:52:07;28.02;;;14.93;;
60993;SDS011;47611;54.932;73.338;2022-09-01T14:54:39;37.95;;;15.73;;
60993;SDS011;47611;54.932;73.338;2022-09-01T14:57:07;26.27;;;14.07;;
60993;SDS011;47611;54.932;73.338;2022-09-01T14:59:43;27.27;;;14.45;;
60993;SDS011;47611;54.932;73.338;2022-09-01T15:02:14;29.17;;;14.50;;
60993;SDS011;47611;54.932;73.338;2022-09-01T15:04:40;28.77;;;15.18;;
60993;SDS011;47611;54.932;73.338;2022-09-01T15:07:11;36.35;;;15.60;;
60993;SDS011;47611;54.932;73.338;2022-09-01T15:09:37;35.08;;;16.33;;
60993;SDS011;47611;54.932;73.338;2022-09-01T15:12:08;42.35;;;21.77;;
60993;SDS011;47611;54.932;73.338;2022-09-01T15:14:44;32.03;;;17.38;;
60993;SDS011;47611;54.932;73.338;2022-09-01T15:17:10;34.78;;;15.85;;
60993;SDS011;47611;54.932;73.338;2022-09-01T15:19:41;34.60;;;15.23;;
60993;SDS011;47611;54.932;73.338;2022-09-01T15:22:07;38.85;;;18.02;;
60993;SDS011;47611;54.932;73.338;2022-09-01T15:24:35;35.58;;;16.85;;
60993;SDS011;47611;54.932;73.338;2022-09-01T15:27:01;31.88;;;16.55;;
60993;SDS011;47611;54.932;73.338;2022-09-01T15:29:27;25.20;;;14.32;;
60993;SDS011;47611;54.932;73.338;2022-09-01T15:32:08;29.15;;;14.82;;
60993;SDS011;47611;54.932;73.338;2022-09-01T15:34:40;27.20;;;14.68;;
60993;SDS011;47611;54.932;73.338;2022-09-01T15:37:11;27.77;;;14.27;;
60993;SDS011;47611;54.932;73.338;2022-09-01T15:39:37;30.50;;;14.55;;
60993;SDS011;47611;54.932;73.338;2022-09-01T15:42:03;24.63;;;14.02;;
60993;SDS011;47611;54.932;73.338;2022-09-01T15:44:29;29.20;;;14.57;;
60993;SDS011;47611;54.932;73.338;2022-09-01T15:46:55;29.02;;;15.20;;
60993;SDS011;47611;54.932;73.338;2022-09-01T15:49:21;28.27;;;13.85;;
60993;SDS011;47611;54.932;73.338;2022-09-01T15:51:47;29.85;;;14.68;;
60993;SDS011;47611;54.932;73.338;2022-09-01T15:54:14;26.27;;;14.35;;